Otisco Valley, New York
Current Conditions -  °F | °C
As of 5:54 AM on Saturday 25 Oct 2014 (Local Time) from KSYR Reporting Station
Broken Clouds Broken Clouds  
Wind Chill: 50°   Ceiling: 3700
Heat Index: 50°   Visibility: 8mi
Dew Point: 45°   Wind: 7mph
Humidity: 83%   Direction: 230°SW
Pressure: 29.85"   Gusts: NA
Location:  42.889°N, 76.2819°W
Report Text: KSYR 250954Z 23006KT 8SM BKN037 BKN065 10/07 A2985 RMK AO2 SLP106 BKN065 V OVC T01000072
Loading
Personal Weather Stations






























Interactive Weather Map
Tropical Storm Tracking
New forecast layout! Learn more

10-Day Weather Forecast

Advertisements
Track Severe Weather on mobile